Terminal Aerodrome Forecast
Issued by NWS

Home | Current Version | Previous Version | Graphics & Text | Print | Product List | Glossary On
Versions: 1 2 3 4 5 6 7 8 9 10 11 12 13 14 15 16 17 18 19
000
FTUS43 KTOP 271120
TAFMHK
TAF
KMHK 271120Z 2712/2812 25006KT P6SM BKN250
     FM271700 17011KT P6SM FEW050 BKN250
     FM280100 17007KT P6SM SCT250=

USA.gov is the U.S. government's official web portal to all federal, state and local government web resources and services.